Time;durP1;ratioP1;P1;durP2;ratioP2;P2;SDS_P1;SDS_P2;PMS_P1;PMS_P2;Temp;Humidity;BMP_temperature;BMP_pressure;BME280_temperature;BME280_humidity;BME280_pressure;Samples;Min_cycle;Max_cycle;Signal;HPM_P1;HPM_P2
2022/06/15 00:02:22;;;;;;;1.50;1.40;;;26.20;51.40;;;;;;6125056;23;20452;-80
2022/06/15 00:04:49;;;;;;;1.60;1.30;;;26.20;51.40;;;;;;6100765;23;20397;-81
2022/06/15 00:07:15;;;;;;;1.53;1.43;;;26.20;51.40;;;;;;6124485;23;20412;-81
2022/06/15 00:09:44;;;;;;;2.50;1.40;;;26.20;51.40;;;;;;6125561;23;20408;-81
2022/06/15 00:12:11;;;;;;;1.73;1.57;;;26.20;51.30;;;;;;6124631;23;20409;-81
2022/06/15 00:14:39;;;;;;;1.50;1.40;;;26.20;51.30;;;;;;6150251;23;20377;-81
2022/06/15 00:17:05;;;;;;;1.93;1.40;;;26.20;51.30;;;;;;6150260;23;20408;-81
2022/06/15 00:19:31;;;;;;;2.30;2.10;;;26.20;51.30;;;;;;6150628;23;20380;-81
2022/06/15 00:25:19;;;;;;;1.50;1.40;;;26.20;51.20;;;;;;6120951;23;20161;-81
2022/06/15 00:27:45;;;;;;;2.90;1.80;;;26.20;51.20;;;;;;6095554;23;20429;-81
2022/06/15 00:30:11;;;;;;;1.60;1.50;;;26.20;51.20;;;;;;6095696;23;20709;-81
2022/06/15 00:32:37;;;;;;;3.50;2.03;;;26.20;51.30;;;;;;6120847;23;20145;-81
2022/06/15 00:35:03;;;;;;;1.70;1.60;;;26.20;51.20;;;;;;6121463;23;20489;-81
2022/06/15 00:37:29;;;;;;;1.60;1.50;;;26.20;51.20;;;;;;6095860;23;20165;-81
2022/06/15 00:39:55;;;;;;;1.53;1.43;;;26.20;51.20;;;;;;6121297;23;20579;-81
2022/06/15 00:42:21;;;;;;;1.50;1.20;;;26.20;51.20;;;;;;6096628;23;20154;-81
2022/06/15 00:44:50;;;;;;;1.80;1.70;;;26.20;51.10;;;;;;6096844;23;20158;-81
2022/06/15 00:47:31;;;;;;;2.10;1.90;;;26.20;51.10;;;;;;6096210;23;20201;-81
2022/06/15 00:50:07;;;;;;;1.57;1.47;;;26.10;51.00;;;;;;6096608;23;20389;-81
2022/06/15 00:52:45;;;;;;;1.90;1.40;;;26.10;51.00;;;;;;6095780;23;20388;-81
2022/06/15 00:55:23;;;;;;;7.70;1.73;;;26.10;51.10;;;;;;6096137;23;20382;-81
2022/06/15 00:57:50;;;;;;;2.40;1.70;;;26.20;51.00;;;;;;6095308;23;20721;-80
2022/06/15 01:00:17;;;;;;;2.00;1.80;;;26.10;51.00;;;;;;6095101;23;20390;-80
2022/06/15 01:02:43;;;;;;;1.63;1.47;;;26.10;51.00;;;;;;6119785;23;20374;-80
2022/06/15 01:05:19;;;;;;;1.63;1.37;;;26.10;51.00;;;;;;6119812;23;20374;-80
2022/06/15 01:08:14;;;;;;;1.50;1.40;;;26.10;51.00;;;;;;6119733;23;20476;-80
2022/06/15 01:11:12;;;;;;;1.93;1.60;;;26.10;51.00;;;;;;6119898;23;20446;-80
2022/06/15 01:13:54;;;;;;;1.83;1.47;;;26.10;51.00;;;;;;6096787;23;20386;-80
2022/06/15 01:16:27;;;;;;;1.80;1.60;;;26.10;51.10;;;;;;6120011;23;20468;-80
2022/06/15 01:19:21;;;;;;;1.60;1.50;;;26.10;51.00;;;;;;6120051;23;20385;-80
2022/06/15 01:21:58;;;;;;;1.87;1.70;;;26.10;51.00;;;;;;6060053;23;20417;-80
2022/06/15 01:24:52;;;;;;;1.70;1.60;;;26.10;51.00;;;;;;6093689;23;20381;-81
2022/06/15 01:27:31;;;;;;;1.90;1.70;;;26.10;51.00;;;;;;6093792;23;20425;-81
2022/06/15 01:30:09;;;;;;;1.67;1.57;;;26.10;50.90;;;;;;6094537;23;20404;-80
2022/06/15 01:32:38;;;;;;;2.43;1.60;;;26.10;50.90;;;;;;6120143;23;20354;-81
2022/06/15 01:35:17;;;;;;;1.60;1.40;;;26.00;50.90;;;;;;6120130;23;20377;-81
2022/06/15 01:38:19;;;;;;;1.80;1.70;;;26.10;50.90;;;;;;6094056;23;20378;-81
2022/06/15 01:41:08;;;;;;;1.60;1.50;;;26.10;50.90;;;;;;6094831;23;20381;-81
2022/06/15 01:43:39;;;;;;;1.63;1.53;;;26.10;50.90;;;;;;6099363;23;20407;-81
2022/06/15 01:46:07;;;;;;;1.60;1.50;;;26.00;50.80;;;;;;6119394;23;20373;-81
2022/06/15 01:48:35;;;;;;;1.47;1.37;;;26.10;50.90;;;;;;6094546;23;20388;-80
2022/06/15 01:51:16;;;;;;;2.60;2.40;;;26.10;50.90;;;;;;6093148;23;20928;-80
2022/06/15 01:53:48;;;;;;;1.80;1.57;;;26.10;50.90;;;;;;6093591;23;20405;-80
2022/06/15 01:56:30;;;;;;;2.17;1.60;;;26.10;50.80;;;;;;6117500;23;20363;-80
2022/06/15 01:59:23;;;;;;;1.70;1.60;;;26.00;50.70;;;;;;6094019;23;20378;-80
2022/06/15 02:02:21;;;;;;;1.60;1.43;;;26.00;50.60;;;;;;6119104;23;20334;-81
2022/06/15 02:04:59;;;;;;;2.17;1.90;;;26.00;50.70;;;;;;6117931;23;20413;-82
2022/06/15 02:07:48;;;;;;;2.07;1.90;;;26.00;50.70;;;;;;6121248;23;20815;-81
2022/06/15 02:10:22;;;;;;;2.13;1.67;;;26.00;50.60;;;;;;6095639;23;20461;-81
2022/06/15 02:13:03;;;;;;;1.70;1.60;;;26.00;50.60;;;;;;6095872;23;20442;-81
2022/06/15 02:15:33;;;;;;;1.70;1.60;;;26.00;50.60;;;;;;6095880;23;20393;-82
2022/06/15 02:18:07;;;;;;;1.93;1.80;;;26.00;50.40;;;;;;6095603;23;20378;-81
2022/06/15 02:20:38;;;;;;;2.43;1.77;;;26.00;50.50;;;;;;6095841;23;20394;-81
2022/06/15 02:23:08;;;;;;;2.33;1.87;;;26.00;50.50;;;;;;6094971;23;20409;-81
2022/06/15 02:25:38;;;;;;;1.70;1.57;;;26.00;50.40;;;;;;6096353;23;20390;-82
2022/06/15 02:28:04;;;;;;;1.63;1.43;;;26.00;50.50;;;;;;6095825;23;20417;-82
2022/06/15 02:30:31;;;;;;;2.40;1.80;;;26.00;50.40;;;;;;6095582;23;20386;-81
2022/06/15 02:33:07;;;;;;;2.60;1.90;;;26.00;50.50;;;;;;6095413;23;20454;-81
2022/06/15 02:35:33;;;;;;;1.60;1.50;;;26.00;50.50;;;;;;6121179;23;20366;-82
2022/06/15 02:38:03;;;;;;;1.57;1.40;;;26.00;50.50;;;;;;6095978;23;20449;-81
2022/06/15 02:40:29;;;;;;;3.20;1.40;;;26.00;50.40;;;;;;6097453;23;20394;-81
2022/06/15 02:42:54;;;;;;;1.70;1.60;;;26.00;50.30;;;;;;6097845;23;20396;-82
2022/06/15 02:45:26;;;;;;;2.43;1.50;;;26.00;50.30;;;;;;6122500;23;20230;-81
2022/06/15 02:47:52;;;;;;;2.20;2.00;;;26.00;50.30;;;;;;6122830;23;20170;-81
2022/06/15 02:50:21;;;;;;;2.00;1.80;;;26.00;50.30;;;;;;6097827;23;20461;-81
2022/06/15 02:52:56;;;;;;;1.60;1.50;;;26.00;50.30;;;;;;6097589;23;20400;-81
2022/06/15 02:55:25;;;;;;;3.40;1.80;;;26.00;50.30;;;;;;6098315;23;20377;-82
2022/06/15 02:58:00;;;;;;;1.57;1.47;;;25.90;50.20;;;;;;6097834;23;20373;-81
2022/06/15 03:00:26;;;;;;;1.50;1.40;;;25.90;50.10;;;;;;6098080;23;20374;-82
2022/06/15 03:02:55;;;;;;;2.40;1.83;;;25.90;50.30;;;;;;6097958;23;20397;-80
2022/06/15 03:05:20;;;;;;;1.70;1.60;;;25.90;50.20;;;;;;6097732;23;20390;-81
2022/06/15 03:07:46;;;;;;;2.30;1.90;;;26.00;50.30;;;;;;6123306;23;20421;-81
2022/06/15 03:10:12;;;;;;;2.03;1.60;;;25.90;50.20;;;;;;6097794;23;20158;-81
2022/06/15 03:12:38;;;;;;;1.83;1.70;;;25.90;50.10;;;;;;6122743;23;20401;-81
2022/06/15 03:15:04;;;;;;;2.20;2.00;;;25.90;50.10;;;;;;6098229;23;20169;-81
2022/06/15 03:17:30;;;;;;;2.63;1.83;;;25.90;50.10;;;;;;6097138;23;20681;-81
2022/06/15 03:19:56;;;;;;;2.63;1.87;;;25.90;50.10;;;;;;6096963;23;20398;-81
2022/06/15 03:22:22;;;;;;;2.27;1.70;;;25.90;50.70;;;;;;6143970;23;20403;-81
2022/06/15 03:24:48;;;;;;;2.10;1.90;;;25.90;50.70;;;;;;6126495;23;20149;-81
2022/06/15 03:27:14;;;;;;;2.07;1.87;;;25.90;50.10;;;;;;6151403;23;20201;-81
2022/06/15 03:29:42;;;;;;;2.00;1.80;;;25.90;50.10;;;;;;6152044;23;20373;-81
2022/06/15 03:32:08;;;;;;;3.10;2.10;;;25.90;50.00;;;;;;6125975;23;20413;-81
2022/06/15 03:34:34;;;;;;;1.87;1.70;;;25.90;50.00;;;;;;6125829;23;20391;-81
2022/06/15 03:36:59;;;;;;;2.27;1.70;;;25.90;50.00;;;;;;6125957;23;20381;-81
2022/06/15 03:39:25;;;;;;;2.30;1.90;;;25.90;50.10;;;;;;6150846;23;20176;-82
2022/06/15 03:41:51;;;;;;;2.00;1.80;;;25.90;50.10;;;;;;6126051;23;20209;-81
2022/06/15 03:44:17;;;;;;;2.37;1.97;;;25.90;50.10;;;;;;6126263;23;20177;-81
2022/06/15 03:46:43;;;;;;;2.37;1.90;;;25.90;49.80;;;;;;6125480;23;20201;-80
2022/06/15 03:49:09;;;;;;;2.60;1.80;;;25.90;49.80;;;;;;6151888;23;20397;-80
2022/06/15 03:51:35;;;;;;;2.37;2.07;;;25.90;49.90;;;;;;6127762;23;20149;-80
2022/06/15 03:54:01;;;;;;;2.13;1.53;;;25.90;49.70;;;;;;6151194;23;20150;-80
2022/06/15 03:56:46;;;;;;;2.63;2.00;;;25.90;49.60;;;;;;6151302;23;20181;-80
2022/06/15 03:59:13;;;;;;;2.60;2.40;;;25.90;49.60;;;;;;6151613;23;20369;-80
2022/06/15 04:01:42;;;;;;;2.43;1.80;;;25.90;49.30;;;;;;6124590;23;20399;-80
2022/06/15 04:04:09;;;;;;;2.17;1.97;;;25.90;49.40;;;;;;6125334;23;20421;-81
2022/06/15 04:06:35;;;;;;;1.97;1.87;;;26.00;49.70;;;;;;6125254;23;20424;-80
2022/06/15 04:09:00;;;;;;;3.03;1.83;;;26.00;49.60;;;;;;6123744;23;20380;-80
2022/06/15 04:14:11;;;;;;;2.80;2.03;;;26.00;49.50;;;;;;6148956;23;20160;-80
2022/06/15 04:16:37;;;;;;;2.20;2.00;;;25.90;49.50;;;;;;6123537;23;20404;-81
2022/06/15 04:19:06;;;;;;;2.20;2.00;;;25.90;49.50;;;;;;6123428;23;20384;-80
2022/06/15 04:21:33;;;;;;;2.07;1.87;;;26.00;49.60;;;;;;6148732;23;20411;-80
2022/06/15 04:23:58;;;;;;;3.33;1.80;;;26.00;49.60;;;;;;6148268;23;20380;-80
2022/06/15 04:26:24;;;;;;;2.47;2.00;;;26.00;49.60;;;;;;6148901;23;20420;-80
2022/06/15 04:28:50;;;;;;;2.13;1.90;;;26.00;49.60;;;;;;6124784;23;20160;-80
2022/06/15 04:31:16;;;;;;;2.13;1.93;;;26.00;49.70;;;;;;6149851;23;20142;-82
2022/06/15 04:33:42;;;;;;;2.10;1.80;;;26.00;49.70;;;;;;6149444;23;20173;-80
2022/06/15 04:36:08;;;;;;;2.20;2.00;;;25.90;49.70;;;;;;6149443;23;20205;-81
2022/06/15 04:38:34;;;;;;;2.10;1.90;;;26.00;49.90;;;;;;6124421;23;20153;-81
2022/06/15 04:41:02;;;;;;;2.30;2.10;;;26.00;49.90;;;;;;6148650;23;20400;-81
2022/06/15 04:43:29;;;;;;;3.90;1.90;;;26.00;50.00;;;;;;6149305;23;20153;-81
2022/06/15 04:45:56;;;;;;;1.90;1.77;;;26.10;50.10;;;;;;6100077;23;20435;-81
2022/06/15 04:48:22;;;;;;;2.13;1.93;;;26.00;50.00;;;;;;6099606;23;20469;-81
2022/06/15 04:50:48;;;;;;;2.20;2.00;;;26.00;50.10;;;;;;6124441;23;20412;-81
2022/06/15 04:53:21;;;;;;;2.60;1.70;;;26.00;50.00;;;;;;6123845;23;20381;-81
2022/06/15 04:55:48;;;;;;;2.50;2.00;;;26.10;50.10;;;;;;6122785;23;20212;-80
2022/06/15 04:58:14;;;;;;;3.67;3.00;;;26.00;50.00;;;;;;6101593;23;20397;-81
2022/06/15 05:00:46;;;;;;;2.20;2.00;;;26.10;50.00;;;;;;6150276;23;20377;-80
2022/06/15 05:04:14;;;;;;;3.00;2.27;;;26.10;50.00;;;;;;6023623;23;20173;-81
2022/06/15 05:06:48;;;;;;;2.60;2.07;;;26.10;49.90;;;;;;6038180;23;20427;-81
2022/06/15 05:09:16;;;;;;;2.33;1.80;;;26.00;49.70;;;;;;6061687;23;20410;-81
2022/06/15 05:11:43;;;;;;;3.93;1.90;;;26.00;49.60;;;;;;6061598;23;20473;-81
2022/06/15 05:14:10;;;;;;;2.20;1.87;;;26.00;49.60;;;;;;6038409;23;20391;-80
2022/06/15 05:16:40;;;;;;;2.20;2.00;;;26.10;49.60;;;;;;6062763;23;20451;-81
2022/06/15 05:19:08;;;;;;;1.93;1.73;;;26.10;49.50;;;;;;6061528;23;20403;-80
2022/06/15 05:21:44;;;;;;;2.17;1.97;;;26.10;49.50;;;;;;6039899;23;20395;-81
2022/06/15 05:24:29;;;;;;;2.70;2.30;;;26.10;49.40;;;;;;6062520;23;20406;-81
2022/06/15 05:27:21;;;;;;;5.70;2.20;;;26.10;49.40;;;;;;6061224;23;20435;-81
2022/06/15 05:29:57;;;;;;;2.40;1.90;;;26.10;49.30;;;;;;6062126;23;20360;-81
2022/06/15 05:32:38;;;;;;;2.10;1.90;;;26.10;49.30;;;;;;6062153;23;20390;-81
2022/06/15 05:35:08;;;;;;;3.07;2.17;;;26.10;49.20;;;;;;6062297;23;20364;-79
2022/06/15 05:37:38;;;;;;;3.10;2.80;;;26.10;49.20;;;;;;6035274;23;20415;-80
2022/06/15 05:40:08;;;;;;;2.30;1.90;;;26.10;49.20;;;;;;6039908;23;20398;-80
2022/06/15 05:42:37;;;;;;;3.20;2.10;;;26.10;49.20;;;;;;6064245;23;20368;-79
2022/06/15 05:45:08;;;;;;;2.17;2.03;;;26.10;49.10;;;;;;6063495;23;20391;-80
2022/06/15 05:47:51;;;;;;;2.27;1.80;;;26.10;49.10;;;;;;6087800;23;20516;-80
2022/06/15 05:50:28;;;;;;;2.60;2.13;;;26.20;49.20;;;;;;6122964;23;20409;-80
2022/06/15 05:53:04;;;;;;;3.70;2.23;;;26.10;49.10;;;;;;6122286;23;20382;-80
2022/06/15 05:55:33;;;;;;;2.17;1.90;;;26.10;49.10;;;;;;6122686;23;20424;-80
2022/06/15 05:58:06;;;;;;;2.10;1.83;;;26.10;49.10;;;;;;6121550;23;20378;-80
2022/06/15 06:00:35;;;;;;;1.90;1.80;;;26.10;49.10;;;;;;6123065;23;20357;-80
2022/06/15 06:03:16;;;;;;;2.33;2.00;;;26.20;49.20;;;;;;6097824;23;20393;-80
2022/06/15 06:06:24;;;;;;;2.67;2.10;;;26.20;49.20;;;;;;6123166;23;20350;-80
2022/06/15 06:08:53;;;;;;;4.87;1.67;;;26.20;49.20;;;;;;6121842;23;20380;-80
2022/06/15 06:11:20;;;;;;;2.20;2.00;;;26.10;49.10;;;;;;6118411;23;20446;-80
2022/06/15 06:13:48;;;;;;;3.90;2.10;;;26.10;49.10;;;;;;6122999;23;20388;-80
2022/06/15 06:16:16;;;;;;;3.40;2.00;;;26.20;49.20;;;;;;6120417;23;20374;-80
2022/06/15 06:18:44;;;;;;;1.50;1.40;;;26.20;49.20;;;;;;6122002;23;20429;-80
2022/06/15 06:21:12;;;;;;;2.80;2.40;;;26.20;49.20;;;;;;6121020;23;20386;-80
2022/06/15 06:23:48;;;;;;;2.43;2.13;;;26.10;49.10;;;;;;6121689;23;20397;-81
2022/06/15 06:26:33;;;;;;;3.63;1.87;;;26.20;49.20;;;;;;6099524;23;20534;-79
2022/06/15 06:29:01;;;;;;;3.00;2.37;;;26.20;49.10;;;;;;6099616;23;20388;-80
2022/06/15 06:31:38;;;;;;;2.37;2.17;;;26.20;49.20;;;;;;6123064;23;20385;-81
2022/06/15 06:34:08;;;;;;;2.20;2.00;;;26.20;49.20;;;;;;6134292;23;20381;-81
2022/06/15 06:36:44;;;;;;;2.20;2.00;;;26.20;49.20;;;;;;6119321;23;20418;-80
2022/06/15 06:39:21;;;;;;;2.80;2.20;;;26.20;49.20;;;;;;6120270;23;20410;-83
2022/06/15 06:41:52;;;;;;;1.90;1.80;;;26.20;49.20;;;;;;6111309;23;20393;-83
2022/06/15 06:44:22;;;;;;;2.43;2.10;;;26.20;49.20;;;;;;6120743;23;20369;-81
2022/06/15 06:46:50;;;;;;;2.43;2.13;;;26.20;49.20;;;;;;6120500;23;20916;-82
2022/06/15 06:49:20;;;;;;;3.20;1.80;;;26.20;49.20;;;;;;6096755;23;20398;-82
2022/06/15 06:51:53;;;;;;;2.57;1.80;;;26.20;49.20;;;;;;6119561;23;20386;-83
2022/06/15 06:54:23;;;;;;;2.40;2.00;;;26.20;49.20;;;;;;6096981;23;20378;-82
2022/06/15 06:56:55;;;;;;;2.20;2.00;;;26.20;49.30;;;;;;6121334;23;20406;-82
2022/06/15 06:59:23;;;;;;;2.13;1.93;;;26.20;49.30;;;;;;6123536;23;20378;-81
2022/06/15 07:01:49;;;;;;;1.93;1.80;;;26.20;49.40;;;;;;6120740;23;20400;-82
2022/06/15 07:07:42;;;;;;;1.77;1.67;;;26.20;49.20;;;;;;6120146;23;20420;-81
2022/06/15 07:10:08;;;;;;;2.30;2.10;;;26.20;49.20;;;;;;6119027;23;20433;-81
2022/06/15 07:12:36;;;;;;;2.20;1.80;;;26.10;49.20;;;;;;6118918;23;20392;-82
2022/06/15 07:15:03;;;;;;;2.87;2.27;;;26.20;49.20;;;;;;6116916;23;20417;-82
2022/06/15 07:17:30;;;;;;;3.60;2.20;;;26.20;49.20;;;;;;6118807;23;20431;-82
2022/06/15 07:19:58;;;;;;;2.50;1.93;;;26.20;49.20;;;;;;6094963;23;20405;-81
2022/06/15 07:22:31;;;;;;;2.07;1.90;;;26.20;49.20;;;;;;6120086;23;20393;-81
2022/06/15 07:24:59;;;;;;;3.97;2.20;;;26.20;49.20;;;;;;6118037;23;20409;-81
2022/06/15 07:27:32;;;;;;;2.40;1.77;;;26.20;49.30;;;;;;6120243;23;20405;-82
2022/06/15 07:30:00;;;;;;;2.27;1.83;;;26.20;49.30;;;;;;6119735;23;20350;-82
2022/06/15 07:32:38;;;;;;;4.00;2.17;;;26.20;49.30;;;;;;6117258;23;20429;-81
2022/06/15 07:35:04;;;;;;;2.03;1.87;;;26.20;49.40;;;;;;6118083;23;20405;-82
2022/06/15 07:37:30;;;;;;;2.80;2.10;;;26.20;49.40;;;;;;6117613;23;20390;-82
2022/06/15 07:39:56;;;;;;;2.37;2.00;;;26.20;49.40;;;;;;6118242;23;20382;-83
2022/06/15 07:42:34;;;;;;;2.43;1.60;;;26.20;49.40;;;;;;6119571;23;20382;-83
2022/06/15 07:45:02;;;;;;;2.50;2.30;;;26.20;49.40;;;;;;6118770;23;20382;-84
2022/06/15 07:50:25;;;;;;;4.77;1.97;;;26.20;49.50;;;;;;6121043;23;20387;-83
2022/06/15 07:52:55;;;;;;;2.10;1.90;;;26.20;49.60;;;;;;6120694;23;20401;-83
2022/06/15 07:55:30;;;;;;;2.07;1.77;;;26.20;49.60;;;;;;6121176;23;20406;-83
2022/06/15 07:58:01;;;;;;;2.13;1.60;;;26.20;49.60;;;;;;6120930;23;20409;-83
2022/06/15 08:00:33;;;;;;;2.10;1.90;;;26.20;49.60;;;;;;6119509;23;20865;-81
2022/06/15 08:03:05;;;;;;;2.37;2.17;;;26.20;49.70;;;;;;6120585;23;20397;-83
2022/06/15 08:05:45;;;;;;;2.33;1.77;;;26.20;49.70;;;;;;6121310;23;20386;-83
2022/06/15 08:08:17;;;;;;;2.50;2.30;;;26.20;49.70;;;;;;6120821;23;20434;-83
2022/06/15 08:10:45;;;;;;;2.10;1.80;;;26.20;49.80;;;;;;6120993;23;20366;-83
2022/06/15 08:13:12;;;;;;;2.03;1.80;;;26.20;49.80;;;;;;6120495;23;20396;-83
2022/06/15 08:15:41;;;;;;;3.57;2.23;;;26.20;49.90;;;;;;6120654;23;20358;-83
2022/06/15 08:18:19;;;;;;;1.80;1.70;;;26.30;50.00;;;;;;6120232;23;20393;-83
2022/06/15 08:21:02;;;;;;;2.70;1.77;;;26.30;49.90;;;;;;6120407;23;20370;-83
2022/06/15 08:23:37;;;;;;;2.00;1.80;;;26.30;50.00;;;;;;6126474;23;20444;-83
2022/06/15 08:26:10;;;;;;;1.90;1.50;;;26.30;50.50;;;;;;6124493;23;20376;-82
2022/06/15 08:28:40;;;;;;;4.27;1.60;;;26.30;50.00;;;;;;6125440;23;20389;-83
2022/06/15 08:31:06;;;;;;;1.97;1.77;;;26.30;50.00;;;;;;6122825;23;20385;-83
2022/06/15 08:33:33;;;;;;;1.97;1.87;;;26.30;50.00;;;;;;6150423;23;20414;-83
2022/06/15 08:35:59;;;;;;;2.80;1.63;;;26.30;50.00;;;;;;6124973;23;20392;-83
2022/06/15 08:38:27;;;;;;;1.60;1.50;;;26.30;50.00;;;;;;6124030;23;20385;-83
2022/06/15 08:41:03;;;;;;;1.70;1.50;;;26.30;50.00;;;;;;6125475;23;20389;-83
2022/06/15 08:43:52;;;;;;;1.50;1.40;;;26.40;50.10;;;;;;6124712;23;20384;-83
2022/06/15 08:47:10;;;;;;;1.63;1.47;;;26.40;50.10;;;;;;6150156;23;20386;-83
2022/06/15 08:50:04;;;;;;;1.90;1.70;;;26.40;50.10;;;;;;6061554;23;20368;-83
2022/06/15 08:53:13;;;;;;;2.03;1.80;;;26.40;50.20;;;;;;6061507;23;20375;-83
2022/06/15 08:55:52;;;;;;;1.87;1.50;;;26.40;50.20;;;;;;5922266;24;20375;-82
2022/06/15 08:58:45;;;;;;;3.40;1.90;;;26.40;50.20;;;;;;5915417;24;20384;-82
2022/06/15 09:01:52;;;;;;;2.27;1.53;;;26.40;50.30;;;;;;5922727;24;20375;-82
2022/06/15 09:04:37;;;;;;;1.90;1.60;;;26.40;50.30;;;;;;5918303;24;20376;-82
2022/06/15 09:07:43;;;;;;;1.60;1.50;;;26.40;50.30;;;;;;5921640;24;20428;-82
2022/06/15 09:10:37;;;;;;;2.23;1.63;;;26.40;50.30;;;;;;5922626;24;20433;-82
2022/06/15 09:13:32;;;;;;;1.50;1.40;;;26.40;50.30;;;;;;5923499;24;20384;-82
2022/06/15 09:16:16;;;;;;;2.30;1.50;;;26.40;50.30;;;;;;5925475;24;20407;-82
2022/06/15 09:18:57;;;;;;;3.10;1.90;;;26.40;50.30;;;;;;5924674;24;20368;-82
2022/06/15 09:21:52;;;;;;;1.77;1.50;;;26.40;50.30;;;;;;5901023;24;20387;-82
2022/06/15 09:24:42;;;;;;;1.70;1.40;;;26.40;50.30;;;;;;5938361;24;20430;-82
2022/06/15 09:27:14;;;;;;;3.10;1.57;;;26.40;50.30;;;;;;5955797;24;20461;-82
2022/06/15 09:29:59;;;;;;;2.20;1.37;;;26.40;50.40;;;;;;5956595;24;20414;-82
2022/06/15 09:32:32;;;;;;;1.67;1.57;;;26.40;50.40;;;;;;6024596;23;20382;-82
2022/06/15 09:35:16;;;;;;;2.50;1.60;;;26.50;50.40;;;;;;6122897;23;20386;-82
2022/06/15 09:37:46;;;;;;;2.20;1.77;;;26.50;50.50;;;;;;6101075;23;20449;-82
2022/06/15 09:40:18;;;;;;;2.20;1.80;;;26.50;50.40;;;;;;6123658;23;20370;-82
2022/06/15 09:43:11;;;;;;;1.60;1.40;;;26.50;50.40;;;;;;6099538;23;20390;-82
2022/06/15 09:45:51;;;;;;;1.77;1.63;;;26.50;50.40;;;;;;6124171;23;20358;-83
2022/06/15 09:48:34;;;;;;;1.67;1.53;;;26.50;50.40;;;;;;6122214;23;20417;-83
2022/06/15 09:51:43;;;;;;;1.97;1.50;;;26.50;50.40;;;;;;6122759;23;20458;-83
2022/06/15 09:54:36;;;;;;;1.30;1.20;;;26.50;50.40;;;;;;6120549;23;20421;-82
2022/06/15 09:57:25;;;;;;;1.50;1.40;;;26.50;50.50;;;;;;6115083;23;20378;-82
2022/06/15 09:59:59;;;;;;;1.70;1.40;;;26.50;50.50;;;;;;6121984;23;20378;-82
2022/06/15 10:02:52;;;;;;;1.50;1.40;;;26.50;50.50;;;;;;6120389;23;20373;-82
2022/06/15 10:05:28;;;;;;;1.47;1.23;;;26.50;50.50;;;;;;6122818;23;20385;-82
2022/06/15 10:07:59;;;;;;;1.80;1.30;;;26.50;50.50;;;;;;6120152;23;20457;-82
2022/06/15 10:10:49;;;;;;;1.60;1.33;;;26.50;50.50;;;;;;6122572;23;20368;-83
2022/06/15 10:13:18;;;;;;;2.00;1.40;;;26.50;50.50;;;;;;6123372;23;20348;-82
2022/06/15 10:16:13;;;;;;;1.50;1.20;;;26.60;50.60;;;;;;6122489;23;20418;-82
2022/06/15 10:18:52;;;;;;;1.47;1.27;;;26.60;50.60;;;;;;6122336;23;20398;-83
2022/06/15 10:21:50;;;;;;;1.73;1.23;;;26.60;50.60;;;;;;6117791;23;20384;-82
2022/06/15 10:24:29;;;;;;;1.93;1.50;;;26.60;50.60;;;;;;6121786;23;20418;-81
2022/06/15 10:27:19;;;;;;;1.40;1.30;;;26.60;50.60;;;;;;6125569;23;20436;-83
2022/06/15 10:30:01;;;;;;;1.83;1.33;;;26.60;50.60;;;;;;6125937;23;20353;-82
2022/06/15 10:32:29;;;;;;;1.40;1.30;;;26.60;50.60;;;;;;6125628;23;20397;-82
2022/06/15 10:35:13;;;;;;;2.00;1.30;;;26.60;50.70;;;;;;6124976;23;20424;-81
2022/06/15 10:37:50;;;;;;;1.53;1.43;;;26.60;50.60;;;;;;6124738;23;20330;-82
2022/06/15 10:40:31;;;;;;;1.80;1.40;;;26.60;50.60;;;;;;6124554;23;20358;-81
2022/06/15 10:43:19;;;;;;;2.43;1.50;;;26.60;50.70;;;;;;6122389;23;20381;-81
2022/06/15 10:46:05;;;;;;;1.47;1.33;;;26.60;50.70;;;;;;6122045;23;20445;-81
2022/06/15 10:48:42;;;;;;;1.50;1.23;;;26.60;50.70;;;;;;6122266;23;20369;-80
2022/06/15 10:51:11;;;;;;;1.63;1.40;;;26.60;50.70;;;;;;6119659;23;20401;-81
2022/06/15 10:53:52;;;;;;;1.90;1.60;;;26.60;50.70;;;;;;6119291;23;20402;-80
2022/06/15 11:02:45;;;;;;;1.23;1.13;;;26.60;50.70;;;;;;5948215;24;20378;-82
2022/06/15 11:05:20;;;;;;;1.63;1.30;;;26.60;50.70;;;;;;5948874;24;20406;-82
2022/06/15 11:07:57;;;;;;;1.30;1.10;;;26.60;50.70;;;;;;5949240;24;20437;-82
2022/06/15 11:10:38;;;;;;;1.40;1.30;;;26.60;50.70;;;;;;5926510;24;20431;-82
2022/06/15 11:13:21;;;;;;;1.10;1.00;;;26.60;50.70;;;;;;5949013;24;20383;-83
2022/06/15 11:18:40;;;;;;;1.60;1.40;;;26.70;50.80;;;;;;5949803;24;20457;-82
2022/06/15 11:21:22;;;;;;;2.17;1.53;;;26.70;50.80;;;;;;5948722;24;20426;-82
2022/06/15 11:23:56;;;;;;;3.30;1.77;;;26.70;51.20;;;;;;5949297;24;20419;-81
2022/06/15 11:26:53;;;;;;;2.53;1.53;;;26.70;50.60;;;;;;5949645;24;20387;-80
2022/06/15 11:29:37;;;;;;;2.03;1.60;;;26.70;50.50;;;;;;5950181;24;20399;-81
2022/06/15 11:32:32;;;;;;;2.80;1.90;;;26.60;50.30;;;;;;5951317;24;20387;-81
2022/06/15 11:35:14;;;;;;;2.03;1.83;;;26.70;50.30;;;;;;5951753;24;20360;-81
2022/06/15 11:38:38;;;;;;;2.43;1.70;;;26.70;50.20;;;;;;6005374;24;20411;-81
2022/06/15 11:41:40;;;;;;;2.13;1.93;;;26.70;50.10;;;;;;6013862;23;20387;-81
2022/06/15 11:44:22;;;;;;;2.30;2.00;;;26.60;50.00;;;;;;5980642;24;20394;-81
2022/06/15 11:47:08;;;;;;;2.20;2.00;;;26.60;50.00;;;;;;5984951;23;20432;-80
2022/06/15 11:49:44;;;;;;;2.60;2.17;;;26.60;49.90;;;;;;6013772;23;20401;-81
2022/06/15 11:52:49;;;;;;;3.47;2.20;;;26.70;50.00;;;;;;6012341;23;20404;-80
2022/06/15 11:55:44;;;;;;;3.50;1.50;;;26.60;49.80;;;;;;6012520;23;20445;-81
2022/06/15 11:58:48;;;;;;;2.50;2.30;;;26.60;49.80;;;;;;6014287;23;20432;-81
2022/06/15 12:01:34;;;;;;;3.20;1.70;;;26.60;49.80;;;;;;6037789;23;20391;-81
2022/06/15 12:04:26;;;;;;;2.20;1.90;;;26.60;49.80;;;;;;6038203;23;20357;-80
2022/06/15 12:07:03;;;;;;;2.00;1.50;;;26.60;49.80;;;;;;6014193;23;20409;-81
2022/06/15 12:10:00;;;;;;;2.33;2.00;;;26.60;49.80;;;;;;6037678;23;20353;-81
2022/06/15 12:12:52;;;;;;;3.03;2.17;;;26.60;49.80;;;;;;6038093;23;20387;-80
2022/06/15 12:15:35;;;;;;;3.30;2.07;;;26.60;49.90;;;;;;6014604;23;20380;-80
2022/06/15 12:18:18;;;;;;;3.27;2.40;;;26.50;49.80;;;;;;6077127;23;20417;-81
2022/06/15 12:21:03;;;;;;;5.43;2.60;;;26.50;49.90;;;;;;6124634;23;20393;-81
2022/06/15 12:23:48;;;;;;;5.10;2.67;;;26.60;50.00;;;;;;6124565;23;20390;-81
2022/06/15 12:27:01;;;;;;;13.50;3.83;;;26.50;50.00;;;;;;6152864;23;20381;-81
2022/06/15 12:30:02;;;;;;;7.13;3.83;;;26.50;50.00;;;;;;6065440;23;20410;-81
2022/06/15 12:32:38;;;;;;;11.60;4.53;;;26.50;50.00;;;;;;6065781;23;20376;-82
2022/06/15 12:35:37;;;;;;;8.20;5.00;;;26.50;50.00;;;;;;6066274;23;20465;-82
2022/06/15 12:38:13;;;;;;;11.93;5.10;;;26.50;50.10;;;;;;5981663;24;20450;-81
2022/06/15 12:40:49;;;;;;;9.93;4.97;;;26.50;50.10;;;;;;5981306;24;20427;-81
2022/06/15 12:43:45;;;;;;;19.77;6.70;;;26.50;50.10;;;;;;5958818;24;20409;-81
2022/06/15 12:46:21;;;;;;;12.90;5.07;;;26.50;50.10;;;;;;5981678;24;20371;-82
2022/06/15 12:49:40;;;;;;;8.47;4.53;;;26.40;50.10;;;;;;5957949;24;20394;-81
2022/06/15 12:57:51;;;;;;;12.77;5.20;;;26.40;50.20;;;;;;6134707;23;21423;-83
2022/06/15 13:00:34;;;;;;;10.87;5.47;;;26.40;50.20;;;;;;6082527;23;20394;-81
2022/06/15 13:05:39;;;;;;;9.00;4.67;;;26.40;50.20;;;;;;6143161;23;20428;-81
2022/06/15 13:08:20;;;;;;;14.33;6.27;;;26.40;50.20;;;;;;6109170;23;20471;-81
2022/06/15 13:10:57;;;;;;;14.70;6.23;;;26.40;50.20;;;;;;6125196;23;20374;-81
2022/06/15 13:21:13;;;;;;;13.13;7.27;;;26.40;50.10;;;;;;6133714;23;20436;-81
2022/06/15 13:23:45;;;;;;;14.03;6.10;;;26.40;50.10;;;;;;6128900;23;20393;-80
2022/06/15 13:26:58;;;;;;;;;;;;;;;;;;;;;
2022/06/15 13:34:43;;;;;;;13.87;5.90;;;26.40;50.10;;;;;;6150272;23;20474;-79
2022/06/15 13:37:18;;;;;;;10.73;5.03;;;26.40;50.10;;;;;;6152467;23;20358;-79
2022/06/15 13:40:03;;;;;;;11.63;5.57;;;26.40;50.10;;;;;;6126451;23;20392;-79
2022/06/15 13:45:35;;;;;;;;;;;;;;;;;;;;;
2022/06/15 13:51:39;;;;;;;;;;;;;;;;;;;;;
2022/06/15 13:54:23;;;;;;;11.00;5.67;;;26.40;50.10;;;;;;6154451;23;20353;-80
2022/06/15 14:02:47;;;;;;;;;;;;;;;;;;;;;
2022/06/15 14:12:34;;;;;;;12.97;5.90;;;26.40;50.20;;;;;;6154757;23;20328;-79
2022/06/15 14:15:21;;;;;;;11.33;5.10;;;26.40;50.20;;;;;;6127090;23;20361;-80
2022/06/15 14:18:17;;;;;;;11.17;6.87;;;26.40;50.20;;;;;;6128504;23;20377;-81
2022/06/15 14:25:17;;;;;;;;;;;;;;;;;;;;;
2022/06/15 14:27:51;;;;;;;11.93;5.57;;;26.40;50.30;;;;;;6068901;23;20404;-81
2022/06/15 14:30:31;;;;;;;12.37;6.40;;;26.40;50.30;;;;;;6127330;23;20385;-79
2022/06/15 14:33:14;;;;;;;9.30;4.90;;;26.40;50.30;;;;;;6128651;23;20367;-79
2022/06/15 14:35:43;;;;;;;14.20;5.40;;;26.40;50.30;;;;;;6152955;23;20337;-80
2022/06/15 14:38:24;;;;;;;10.13;5.10;;;26.40;50.30;;;;;;6127418;23;20396;-80
2022/06/15 14:40:53;;;;;;;10.77;4.80;;;26.40;50.30;;;;;;6127844;23;20404;-80
2022/06/15 14:43:21;;;;;;;14.10;5.80;;;26.40;50.40;;;;;;6127851;23;20399;-80
2022/06/15 14:45:58;;;;;;;8.67;5.30;;;26.40;50.40;;;;;;6125911;23;20393;-80
2022/06/15 14:48:25;;;;;;;13.63;5.40;;;26.50;50.40;;;;;;6126804;23;20408;-80